Time;durP1;ratioP1;P1;durP2;ratioP2;P2;SDS_P1;SDS_P2;PMS_P1;PMS_P2;Temp;Humidity;BMP_temperature;BMP_pressure;BME280_temperature;BME280_humidity;BME280_pressure;Samples;Min_cycle;Max_cycle;Signal;HPM_P1;HPM_P2
2021/10/15 00:02:22;;;;;;;12.40;9.90;;;13.00;99.90;;;;;;5035478;28;20495;-60
2021/10/15 00:04:49;;;;;;;12.90;11.60;;;13.00;99.90;;;;;;5033560;28;20442;-61
2021/10/15 00:07:18;;;;;;;16.90;11.63;;;13.00;99.90;;;;;;5033146;28;20852;-60
2021/10/15 00:09:45;;;;;;;13.07;11.70;;;13.00;99.90;;;;;;5033121;28;20575;-60
2021/10/15 00:12:12;;;;;;;11.27;10.07;;;13.00;99.90;;;;;;5032966;28;20929;-60
2021/10/15 00:14:39;;;;;;;12.33;10.57;;;13.00;99.90;;;;;;5033224;28;20801;-62
2021/10/15 00:17:06;;;;;;;10.37;9.37;;;13.00;99.90;;;;;;5033402;28;20510;-60
2021/10/15 00:19:33;;;;;;;11.83;10.20;;;13.00;99.90;;;;;;5033319;28;20515;-60
2021/10/15 00:22:00;;;;;;;13.17;10.77;;;13.00;99.90;;;;;;5033320;28;20453;-60
2021/10/15 00:24:29;;;;;;;10.90;9.80;;;13.00;99.90;;;;;;5035137;28;20503;-60
2021/10/15 00:26:56;;;;;;;10.90;9.83;;;13.00;99.90;;;;;;5037053;28;21050;-60
2021/10/15 00:29:23;;;;;;;13.00;9.83;;;13.00;99.90;;;;;;5037408;28;20448;-60
2021/10/15 00:31:50;;;;;;;11.00;9.70;;;13.00;99.90;;;;;;5037513;28;20445;-60
2021/10/15 00:34:17;;;;;;;13.73;9.37;;;13.00;99.90;;;;;;5037341;28;20480;-60
2021/10/15 00:36:44;;;;;;;9.80;8.53;;;13.00;99.90;;;;;;5037287;28;20514;-59
2021/10/15 00:39:11;;;;;;;10.13;8.80;;;13.00;99.90;;;;;;5037143;28;20441;-60
2021/10/15 00:41:40;;;;;;;9.23;8.30;;;13.00;99.90;;;;;;5036811;28;20957;-60
2021/10/15 00:44:09;;;;;;;12.50;9.43;;;13.00;99.90;;;;;;5037066;28;20441;-60
2021/10/15 00:46:37;;;;;;;15.47;9.27;;;13.00;99.90;;;;;;5038037;28;20988;-59
2021/10/15 00:49:05;;;;;;;13.13;8.40;;;13.00;99.90;;;;;;5036652;28;20983;-59
2021/10/15 00:51:33;;;;;;;11.03;9.70;;;13.00;99.90;;;;;;5036543;28;20456;-60
2021/10/15 00:54:01;;;;;;;10.80;9.07;;;13.00;99.90;;;;;;5036899;28;20485;-60
2021/10/15 00:56:29;;;;;;;10.83;9.70;;;13.00;99.90;;;;;;5036976;28;20477;-60
2021/10/15 00:58:59;;;;;;;9.67;7.73;;;13.00;99.90;;;;;;5036960;28;20488;-61
2021/10/15 01:01:26;;;;;;;11.27;9.30;;;12.90;99.90;;;;;;5036863;28;20495;-61
2021/10/15 01:03:53;;;;;;;11.27;9.40;;;13.00;99.90;;;;;;5036571;28;20451;-60
2021/10/15 01:06:21;;;;;;;12.00;9.20;;;12.90;99.90;;;;;;5036550;28;20823;-61
2021/10/15 01:08:49;;;;;;;13.43;8.73;;;13.00;99.90;;;;;;5041484;28;20471;-61
2021/10/15 01:11:17;;;;;;;12.43;9.53;;;13.00;99.90;;;;;;5060619;28;20460;-61
2021/10/15 01:13:46;;;;;;;11.03;9.40;;;13.00;99.90;;;;;;5059152;28;20476;-62
2021/10/15 01:16:15;;;;;;;12.70;9.80;;;12.90;99.90;;;;;;5057230;28;20468;-61
2021/10/15 01:18:44;;;;;;;10.37;9.30;;;12.90;99.90;;;;;;5038893;28;20448;-60
2021/10/15 01:21:13;;;;;;;11.40;9.90;;;13.00;99.90;;;;;;5036905;28;20453;-60
2021/10/15 01:23:41;;;;;;;9.67;8.67;;;12.90;99.90;;;;;;5036107;28;20441;-60
2021/10/15 01:26:09;;;;;;;10.50;9.30;;;12.90;99.90;;;;;;5036160;28;20468;-60
2021/10/15 01:28:36;;;;;;;10.27;9.10;;;12.90;99.90;;;;;;5036340;28;20453;-60
2021/10/15 01:31:03;;;;;;;13.00;9.80;;;13.00;99.90;;;;;;5036359;28;20452;-60
2021/10/15 01:33:30;;;;;;;10.13;8.80;;;12.90;99.90;;;;;;5036188;28;20554;-60
2021/10/15 01:35:57;;;;;;;11.53;9.37;;;12.90;99.90;;;;;;5035396;28;20543;-61
2021/10/15 01:38:26;;;;;;;12.10;8.10;;;13.00;99.90;;;;;;5035991;28;20452;-60
2021/10/15 01:40:53;;;;;;;10.90;9.23;;;12.90;99.90;;;;;;5035919;28;20999;-60
2021/10/15 01:43:22;;;;;;;10.70;9.27;;;12.90;99.90;;;;;;5036249;28;20446;-61
2021/10/15 01:45:50;;;;;;;11.23;9.30;;;12.90;99.90;;;;;;5035822;28;20496;-60
2021/10/15 01:48:17;;;;;;;14.30;9.97;;;12.90;99.90;;;;;;5036265;28;20448;-61
2021/10/15 01:50:44;;;;;;;10.00;8.40;;;12.90;99.90;;;;;;5036138;28;20449;-61
2021/10/15 01:53:11;;;;;;;8.73;7.83;;;12.90;99.90;;;;;;5036294;28;20555;-61
2021/10/15 01:55:40;;;;;;;10.13;8.47;;;12.90;99.90;;;;;;5035630;28;20481;-61
2021/10/15 01:58:08;;;;;;;11.73;8.33;;;12.90;99.90;;;;;;5036537;28;20861;-61
2021/10/15 02:00:36;;;;;;;11.97;8.80;;;12.90;99.90;;;;;;5037518;28;20445;-60
2021/10/15 02:03:03;;;;;;;11.03;8.60;;;12.80;99.90;;;;;;5036034;28;20437;-60
2021/10/15 02:05:30;;;;;;;9.70;8.60;;;12.80;99.90;;;;;;5035306;28;20526;-61
2021/10/15 02:07:58;;;;;;;13.00;8.00;;;12.80;99.90;;;;;;5035763;28;20543;-61
2021/10/15 02:10:25;;;;;;;11.07;8.60;;;12.80;99.90;;;;;;5035690;28;20860;-61
2021/10/15 02:12:54;;;;;;;9.20;8.30;;;12.80;99.90;;;;;;5035099;28;20453;-61
2021/10/15 02:15:22;;;;;;;11.33;8.27;;;12.80;99.90;;;;;;5035322;28;20469;-61
2021/10/15 02:17:50;;;;;;;12.93;9.03;;;12.80;99.90;;;;;;5035337;28;20487;-60
2021/10/15 02:20:18;;;;;;;10.80;7.93;;;12.80;99.90;;;;;;5035625;28;20468;-60
2021/10/15 02:22:47;;;;;;;10.43;7.60;;;12.80;99.90;;;;;;5036649;28;20453;-60
2021/10/15 02:25:16;;;;;;;9.50;8.23;;;12.80;99.90;;;;;;5036376;28;20854;-61
2021/10/15 02:27:43;;;;;;;10.33;7.73;;;12.80;99.90;;;;;;5035883;28;20452;-60
2021/10/15 02:30:13;;;;;;;7.70;6.80;;;12.80;99.90;;;;;;5036181;28;20475;-59
2021/10/15 02:32:41;;;;;;;11.83;7.90;;;12.80;99.90;;;;;;5035687;28;20518;-59
2021/10/15 02:35:09;;;;;;;9.73;6.97;;;12.80;99.90;;;;;;5034975;28;20531;-60
2021/10/15 02:37:36;;;;;;;9.03;7.50;;;12.80;99.90;;;;;;5035743;28;20449;-60
2021/10/15 02:40:04;;;;;;;8.20;7.40;;;12.80;99.90;;;;;;5035665;28;20506;-60
2021/10/15 02:42:31;;;;;;;9.30;6.97;;;12.70;99.90;;;;;;5036033;28;20457;-61
2021/10/15 02:44:58;;;;;;;9.83;7.00;;;12.70;99.90;;;;;;5036628;28;21015;-61
2021/10/15 02:47:27;;;;;;;9.27;7.37;;;12.70;99.90;;;;;;5034546;28;20913;-60
2021/10/15 02:49:54;;;;;;;9.37;6.90;;;12.70;99.90;;;;;;5035461;28;20999;-60
2021/10/15 02:52:21;;;;;;;10.00;7.57;;;12.70;99.90;;;;;;5035720;28;20449;-60
2021/10/15 02:54:48;;;;;;;9.20;6.90;;;12.70;99.90;;;;;;5035766;28;20484;-61
2021/10/15 02:57:15;;;;;;;8.30;6.60;;;12.60;99.90;;;;;;5035897;28;20857;-59
2021/10/15 02:59:42;;;;;;;13.27;6.57;;;12.60;99.90;;;;;;5036153;28;20514;-61
2021/10/15 03:02:09;;;;;;;10.20;6.93;;;12.60;99.90;;;;;;5035345;28;20460;-59
2021/10/15 03:04:37;;;;;;;8.60;5.83;;;12.60;99.90;;;;;;5038045;28;20442;-60
2021/10/15 03:07:04;;;;;;;12.43;6.73;;;12.60;99.90;;;;;;5042467;28;20465;-60
2021/10/15 03:09:31;;;;;;;7.33;6.40;;;12.60;99.90;;;;;;5039026;28;20452;-60
2021/10/15 03:11:58;;;;;;;8.30;6.87;;;12.60;99.90;;;;;;5039833;28;20994;-60
2021/10/15 03:14:25;;;;;;;8.83;6.90;;;12.60;99.90;;;;;;5040314;28;20483;-59
2021/10/15 03:16:52;;;;;;;8.00;6.40;;;12.60;99.90;;;;;;5038065;28;20473;-59
2021/10/15 03:19:19;;;;;;;8.60;6.47;;;12.60;99.90;;;;;;5038379;28;20458;-59
2021/10/15 03:21:48;;;;;;;7.97;6.07;;;12.60;99.90;;;;;;5038831;28;20456;-60
2021/10/15 03:24:15;;;;;;;6.80;6.03;;;12.60;99.90;;;;;;5040687;28;20586;-60
2021/10/15 03:26:42;;;;;;;11.80;6.50;;;12.60;99.90;;;;;;5039791;28;20465;-60
2021/10/15 03:29:09;;;;;;;7.90;5.80;;;12.60;99.90;;;;;;5040135;28;20482;-61
2021/10/15 03:31:36;;;;;;;10.93;6.37;;;12.60;99.90;;;;;;5041919;28;20445;-60
2021/10/15 03:34:03;;;;;;;11.93;6.43;;;12.60;99.90;;;;;;5036773;28;20476;-60
2021/10/15 03:36:30;;;;;;;7.97;5.60;;;12.50;99.90;;;;;;5036165;28;20473;-60
2021/10/15 03:38:59;;;;;;;7.50;5.40;;;12.50;99.90;;;;;;5036106;28;20511;-60
2021/10/15 03:41:26;;;;;;;9.47;5.80;;;12.60;99.90;;;;;;5036447;28;20807;-59
2021/10/15 03:43:53;;;;;;;7.20;5.40;;;12.60;99.90;;;;;;5035869;28;20586;-61
2021/10/15 03:46:20;;;;;;;9.97;7.27;;;12.60;99.90;;;;;;5035426;28;20996;-60
2021/10/15 03:48:47;;;;;;;8.47;6.13;;;12.60;99.90;;;;;;5036136;28;20457;-60
2021/10/15 03:51:14;;;;;;;8.70;6.23;;;12.60;99.90;;;;;;5036003;28;20441;-60
2021/10/15 03:53:41;;;;;;;11.10;6.80;;;12.60;99.90;;;;;;5034808;28;20476;-60
2021/10/15 03:56:09;;;;;;;8.03;6.63;;;12.60;99.90;;;;;;5034378;28;20820;-60
2021/10/15 03:58:36;;;;;;;9.77;5.13;;;12.60;99.90;;;;;;5034519;28;20499;-60
2021/10/15 04:01:03;;;;;;;11.07;6.43;;;12.60;99.90;;;;;;5034313;28;20460;-60
2021/10/15 04:03:30;;;;;;;8.10;6.00;;;12.60;99.90;;;;;;5034028;28;20944;-60
2021/10/15 04:08:43;;;;;;;9.13;6.13;;;12.60;99.90;;;;;;5094515;27;20567;-60
2021/10/15 04:11:10;;;;;;;9.47;6.20;;;12.60;99.90;;;;;;5092969;28;20442;-59
2021/10/15 04:13:37;;;;;;;7.80;5.60;;;12.60;99.90;;;;;;5092124;28;20439;-60
2021/10/15 04:16:04;;;;;;;9.17;5.70;;;12.60;99.90;;;;;;5091771;28;21047;-59
2021/10/15 04:18:31;;;;;;;6.20;5.40;;;12.60;99.90;;;;;;5092097;28;20443;-60
2021/10/15 04:20:58;;;;;;;7.57;5.80;;;12.60;99.90;;;;;;5091366;28;20492;-60
2021/10/15 04:23:25;;;;;;;10.87;6.37;;;12.60;99.90;;;;;;5091609;28;20450;-59
2021/10/15 04:25:54;;;;;;;7.50;5.80;;;12.60;99.90;;;;;;5091969;28;20540;-59
2021/10/15 04:28:21;;;;;;;8.60;5.50;;;12.60;99.90;;;;;;5093155;28;20547;-60
2021/10/15 04:30:48;;;;;;;8.23;5.60;;;12.60;99.90;;;;;;5091191;28;20435;-60
2021/10/15 04:33:15;;;;;;;6.80;5.53;;;12.60;99.90;;;;;;5090964;28;20874;-59
2021/10/15 04:35:42;;;;;;;7.93;5.70;;;12.60;99.90;;;;;;5091969;28;20467;-60
2021/10/15 04:38:10;;;;;;;8.27;5.70;;;12.60;99.90;;;;;;5091249;28;20981;-61
2021/10/15 04:40:36;;;;;;;7.43;5.10;;;12.60;99.90;;;;;;5090373;28;20500;-60
2021/10/15 04:43:05;;;;;;;6.47;5.57;;;12.60;99.90;;;;;;5091186;28;20859;-59
2021/10/15 04:45:32;;;;;;;6.60;4.77;;;12.60;99.90;;;;;;5108926;22;20450;-58
2021/10/15 04:47:59;;;;;;;5.57;4.63;;;12.50;99.70;;;;;;5049793;28;20468;-57
2021/10/15 04:50:27;;;;;;;7.00;5.07;;;12.60;99.70;;;;;;5049900;28;20452;-57
2021/10/15 04:52:54;;;;;;;5.97;4.83;;;12.60;99.60;;;;;;5049894;28;20562;-57
2021/10/15 04:55:21;;;;;;;7.00;4.70;;;12.50;99.40;;;;;;5049682;28;20470;-57
2021/10/15 04:57:48;;;;;;;5.53;4.70;;;12.50;99.60;;;;;;5049478;28;20498;-57
2021/10/15 05:00:18;;;;;;;9.67;5.77;;;12.50;99.30;;;;;;5049501;28;20449;-57
2021/10/15 05:02:45;;;;;;;8.43;4.93;;;12.50;99.20;;;;;;5049861;28;20443;-57
2021/10/15 05:05:13;;;;;;;7.30;4.53;;;12.50;99.10;;;;;;5049488;28;20448;-58
2021/10/15 05:07:40;;;;;;;5.70;4.33;;;12.50;99.00;;;;;;5049631;28;20476;-57
2021/10/15 05:10:08;;;;;;;5.00;3.70;;;12.50;98.90;;;;;;5049411;28;20505;-57
2021/10/15 05:12:35;;;;;;;6.67;4.63;;;12.50;98.80;;;;;;5048957;28;20460;-57
2021/10/15 05:15:02;;;;;;;8.43;5.00;;;12.50;98.60;;;;;;5049192;28;20498;-57
2021/10/15 05:17:31;;;;;;;7.90;4.40;;;12.50;98.60;;;;;;5048954;28;20465;-57
2021/10/15 05:20:00;;;;;;;5.57;4.60;;;12.50;98.60;;;;;;5036187;28;20937;-57
2021/10/15 05:22:27;;;;;;;5.53;4.43;;;12.50;98.60;;;;;;5035876;28;20850;-57
2021/10/15 05:24:54;;;;;;;6.60;5.00;;;12.50;98.50;;;;;;5035987;28;20452;-58
2021/10/15 05:27:21;;;;;;;6.47;4.30;;;12.40;98.50;;;;;;5035689;28;20489;-57
2021/10/15 05:29:48;;;;;;;6.60;4.60;;;12.40;98.50;;;;;;5035241;28;20507;-57
2021/10/15 05:32:16;;;;;;;4.90;4.40;;;12.40;98.50;;;;;;5035929;28;20503;-57
2021/10/15 05:34:46;;;;;;;7.20;5.10;;;12.40;98.50;;;;;;5035636;28;20544;-58
2021/10/15 05:37:13;;;;;;;8.03;5.03;;;12.40;98.40;;;;;;5035926;28;20605;-57
2021/10/15 05:39:41;;;;;;;5.47;3.90;;;12.40;98.40;;;;;;5035674;28;20444;-58
2021/10/15 05:42:08;;;;;;;8.77;5.17;;;12.40;98.30;;;;;;5035178;28;20994;-56
2021/10/15 05:44:35;;;;;;;7.70;4.83;;;12.40;98.30;;;;;;5035121;28;20498;-56
2021/10/15 05:47:04;;;;;;;4.80;4.23;;;12.40;98.20;;;;;;5034750;28;20477;-58
2021/10/15 05:49:31;;;;;;;9.27;5.50;;;12.30;98.20;;;;;;5035182;28;20507;-56
2021/10/15 05:52:04;;;;;;;11.23;4.23;;;12.30;98.20;;;;;;5035311;28;20449;-56
2021/10/15 05:54:40;;;;;;;7.37;4.57;;;12.30;98.20;;;;;;5035138;28;20445;-57
2021/10/15 05:57:28;;;;;;;12.70;4.73;;;12.30;98.30;;;;;;5035501;28;20826;-56
2021/10/15 05:59:54;;;;;;;7.20;4.77;;;12.30;98.30;;;;;;5034917;28;20653;-57
2021/10/15 06:02:21;;;;;;;6.23;4.40;;;12.30;98.40;;;;;;5035111;28;20524;-56
2021/10/15 06:15:47;;;;;;;7.10;5.70;;;12.30;98.40;;;;;;5035202;28;20528;-58
2021/10/15 06:18:17;;;;;;;6.27;4.70;;;12.30;98.40;;;;;;5035135;28;20445;-58
2021/10/15 06:20:44;;;;;;;7.70;5.27;;;12.30;98.40;;;;;;5034946;28;20449;-58
2021/10/15 06:23:13;;;;;;;8.17;5.30;;;12.30;98.40;;;;;;5035346;28;20519;-58
2021/10/15 06:25:40;;;;;;;5.60;4.60;;;12.30;98.40;;;;;;5034497;28;20886;-56
2021/10/15 06:28:10;;;;;;;9.93;5.60;;;12.40;98.30;;;;;;5034500;28;20580;-58
2021/10/15 06:30:38;;;;;;;7.73;4.90;;;12.40;98.30;;;;;;5033910;28;20434;-57
2021/10/15 06:33:05;;;;;;;9.17;5.27;;;12.40;98.30;;;;;;5034831;28;20863;-58
2021/10/15 06:35:33;;;;;;;6.13;4.77;;;12.40;98.30;;;;;;5034443;28;21009;-58
2021/10/15 06:38:00;;;;;;;5.77;5.10;;;12.40;98.30;;;;;;5034539;28;20441;-57
2021/10/15 06:40:28;;;;;;;10.37;5.00;;;12.50;98.20;;;;;;5034627;28;20540;-58
2021/10/15 06:42:55;;;;;;;5.97;5.37;;;12.50;98.10;;;;;;5034126;28;20457;-57
2021/10/15 06:45:22;;;;;;;8.53;5.30;;;12.50;98.00;;;;;;5034012;28;21002;-57
2021/10/15 06:47:50;;;;;;;8.17;4.43;;;12.50;98.00;;;;;;5034906;28;20527;-56
2021/10/15 06:50:17;;;;;;;7.30;5.07;;;12.50;98.00;;;;;;5034272;28;20445;-56
2021/10/15 06:52:47;;;;;;;6.83;4.93;;;12.60;98.00;;;;;;5034117;28;20504;-57
2021/10/15 06:55:15;;;;;;;5.90;5.20;;;12.60;97.90;;;;;;5034597;28;20986;-55
2021/10/15 06:57:44;;;;;;;5.93;4.83;;;12.60;97.90;;;;;;5034127;28;20519;-57
2021/10/15 07:00:13;;;;;;;7.10;4.70;;;12.60;97.80;;;;;;5034081;28;20453;-56
2021/10/15 07:02:40;;;;;;;9.20;5.10;;;12.60;97.80;;;;;;5033647;28;21006;-55
2021/10/15 07:05:09;;;;;;;7.60;5.57;;;12.60;97.60;;;;;;5033926;28;20445;-57
2021/10/15 07:07:36;;;;;;;5.90;5.13;;;12.60;97.60;;;;;;5034035;28;20527;-55
2021/10/15 07:10:05;;;;;;;8.70;5.50;;;12.70;97.70;;;;;;5033376;28;20507;-57
2021/10/15 07:12:36;;;;;;;7.30;4.40;;;12.70;97.70;;;;;;5033343;28;20480;-58
2021/10/15 07:15:07;;;;;;;5.87;5.00;;;12.80;97.70;;;;;;5033377;28;20426;-58
2021/10/15 07:17:34;;;;;;;6.17;5.37;;;12.80;97.50;;;;;;5033775;28;20520;-57
2021/10/15 07:20:01;;;;;;;8.33;5.80;;;12.90;97.50;;;;;;5033724;28;20937;-57
2021/10/15 07:22:28;;;;;;;10.23;7.53;;;12.90;97.40;;;;;;5033519;28;20460;-57
2021/10/15 07:24:55;;;;;;;8.50;5.73;;;13.00;97.40;;;;;;5033370;28;20534;-58
2021/10/15 07:27:22;;;;;;;7.63;5.73;;;13.00;97.30;;;;;;5033113;28;20469;-56
2021/10/15 07:29:49;;;;;;;7.57;6.00;;;13.00;97.20;;;;;;5033416;28;20444;-56
2021/10/15 07:32:18;;;;;;;12.90;5.30;;;13.10;97.30;;;;;;5033500;28;20789;-57
2021/10/15 07:34:45;;;;;;;8.10;5.70;;;13.10;97.30;;;;;;5033372;28;20449;-57
2021/10/15 07:37:13;;;;;;;7.60;4.97;;;13.10;97.20;;;;;;5033367;28;20468;-57
2021/10/15 07:39:40;;;;;;;6.93;5.50;;;13.10;97.20;;;;;;5033062;28;20987;-57
2021/10/15 07:42:07;;;;;;;7.50;6.37;;;13.10;97.20;;;;;;5033272;28;20496;-57
2021/10/15 07:44:34;;;;;;;8.60;5.70;;;13.10;97.20;;;;;;5033523;28;20454;-57
2021/10/15 07:47:01;;;;;;;11.07;6.37;;;13.10;97.20;;;;;;5032388;28;20554;-57
2021/10/15 07:49:29;;;;;;;6.33;5.73;;;13.10;97.20;;;;;;5032965;28;20849;-58
2021/10/15 07:51:56;;;;;;;9.60;5.77;;;13.10;97.10;;;;;;5033288;28;20449;-57
2021/10/15 07:54:23;;;;;;;9.27;6.20;;;13.20;97.10;;;;;;5033159;28;20450;-58
2021/10/15 07:56:50;;;;;;;7.23;6.30;;;13.20;97.10;;;;;;5032713;28;20475;-57
2021/10/15 07:59:17;;;;;;;6.80;5.50;;;13.20;97.10;;;;;;5033221;28;20441;-57
2021/10/15 08:01:45;;;;;;;9.63;5.93;;;13.20;97.10;;;;;;5032872;28;20929;-56
2021/10/15 08:04:13;;;;;;;9.73;6.37;;;13.20;97.20;;;;;;5033091;28;20457;-58
2021/10/15 08:06:41;;;;;;;11.13;6.67;;;13.20;97.20;;;;;;5032924;28;20465;-59
2021/10/15 08:09:08;;;;;;;8.83;6.17;;;13.20;97.20;;;;;;5032717;28;20476;-58
2021/10/15 08:11:35;;;;;;;6.93;5.90;;;13.20;97.30;;;;;;5032836;28;20451;-58
2021/10/15 08:14:03;;;;;;;8.63;6.23;;;13.10;97.30;;;;;;5033451;28;20449;-58
2021/10/15 08:16:30;;;;;;;12.07;7.07;;;13.20;97.50;;;;;;5032800;28;20466;-58
2021/10/15 08:18:57;;;;;;;8.93;6.30;;;13.10;97.50;;;;;;5033180;28;20439;-57
2021/10/15 08:21:24;;;;;;;11.97;7.00;;;13.10;97.60;;;;;;5032728;28;20454;-58
2021/10/15 08:23:52;;;;;;;8.13;6.77;;;13.20;97.70;;;;;;5032995;28;20447;-57
2021/10/15 08:26:19;;;;;;;9.13;6.40;;;13.10;97.70;;;;;;5032910;28;20492;-56
2021/10/15 08:28:47;;;;;;;8.43;7.43;;;13.10;97.80;;;;;;5032626;28;20879;-56
2021/10/15 08:31:15;;;;;;;7.87;6.73;;;13.10;98.00;;;;;;5033065;28;20455;-57
2021/10/15 08:33:42;;;;;;;13.10;8.97;;;12.90;98.40;;;;;;5032914;28;20934;-55
2021/10/15 08:36:09;;;;;;;13.70;9.57;;;12.70;99.30;;;;;;5032945;28;20464;-56
2021/10/15 08:38:36;;;;;;;10.77;9.50;;;12.40;99.90;;;;;;5032777;28;20499;-57
2021/10/15 08:41:05;;;;;;;11.40;10.30;;;12.20;99.90;;;;;;5033013;28;20448;-58
2021/10/15 08:43:36;;;;;;;11.93;10.70;;;11.90;99.90;;;;;;5033111;28;21006;-56
2021/10/15 08:46:03;;;;;;;16.63;12.23;;;11.80;99.90;;;;;;5032972;28;21039;-56
2021/10/15 08:48:31;;;;;;;19.33;13.77;;;11.70;99.90;;;;;;5032551;28;20492;-56
2021/10/15 08:50:58;;;;;;;17.03;13.70;;;11.60;99.90;;;;;;5032843;28;20527;-56
2021/10/15 08:53:25;;;;;;;15.40;13.80;;;11.50;99.90;;;;;;5033141;28;20865;-56
2021/10/15 08:55:52;;;;;;;16.17;14.17;;;11.50;99.90;;;;;;5036402;28;20798;-56
2021/10/15 08:58:21;;;;;;;15.40;13.80;;;11.40;99.90;;;;;;5036329;28;20449;-56
2021/10/15 09:00:57;;;;;;;15.57;14.00;;;11.30;99.90;;;;;;5036353;28;20518;-56
2021/10/15 09:03:25;;;;;;;18.07;16.27;;;11.30;99.90;;;;;;5036311;28;20433;-56
2021/10/15 09:05:55;;;;;;;12.10;10.33;;;11.20;99.90;;;;;;5036271;28;20459;-58
2021/10/15 09:08:22;;;;;;;10.73;9.63;;;11.20;99.90;;;;;;5036737;28;20472;-57
2021/10/15 09:10:49;;;;;;;7.50;5.97;;;11.10;99.90;;;;;;5036111;28;20494;-56
2021/10/15 09:13:20;;;;;;;7.30;6.60;;;11.00;99.90;;;;;;5036334;28;20448;-56
2021/10/15 09:15:50;;;;;;;6.10;4.63;;;10.90;99.90;;;;;;5036157;28;20475;-57
2021/10/15 09:18:20;;;;;;;7.27;3.90;;;10.90;99.90;;;;;;5035546;28;20210;-56
2021/10/15 09:20:48;;;;;;;3.73;3.10;;;10.80;99.90;;;;;;5035725;28;20482;-57
2021/10/15 09:23:16;;;;;;;4.15;3.35;;;10.80;99.90;;;;;;5036036;28;20886;-57
2021/10/15 09:25:46;;;;;;;2.80;2.43;;;10.80;99.90;;;;;;5035396;28;20272;-57
2021/10/15 09:28:15;;;;;;;3.10;2.40;;;10.80;99.90;;;;;;5035928;28;20494;-57
2021/10/15 09:30:44;;;;;;;4.60;3.47;;;10.70;99.90;;;;;;5035751;28;20206;-58
2021/10/15 09:33:13;;;;;;;5.57;2.25;;;10.70;99.90;;;;;;5035435;28;20259;-57
2021/10/15 09:35:40;;;;;;;2.33;2.13;;;10.70;99.90;;;;;;5035689;28;20221;-59
2021/10/15 09:38:09;;;;;;;3.57;2.20;;;10.80;99.90;;;;;;5035402;28;20558;-58
2021/10/15 09:40:38;;;;;;;2.40;2.17;;;10.80;99.90;;;;;;5035348;28;20955;-57
2021/10/15 09:43:07;;;;;;;2.00;1.80;;;10.80;99.90;;;;;;5035031;28;20940;-58
2021/10/15 09:45:37;;;;;;;4.05;2.05;;;10.80;99.90;;;;;;5035729;28;20483;-57
2021/10/15 09:48:20;;;;;;;2.70;1.73;;;10.80;99.90;;;;;;5035231;28;20690;-57
2021/10/15 09:50:48;;;;;;;2.30;2.10;;;10.80;99.90;;;;;;5035557;28;20557;-58
2021/10/15 09:53:15;;;;;;;2.75;2.03;;;10.90;99.90;;;;;;5035253;28;20541;-57
2021/10/15 09:55:44;;;;;;;3.13;2.10;;;10.90;99.90;;;;;;5034847;28;20279;-57
2021/10/15 09:58:12;;;;;;;1.80;1.63;;;10.90;99.90;;;;;;5034966;28;20209;-56
2021/10/15 10:00:41;;;;;;;3.22;1.55;;;10.90;99.90;;;;;;5034817;28;20456;-57
2021/10/15 10:03:09;;;;;;;3.25;1.48;;;10.90;99.90;;;;;;5035174;28;20203;-58
2021/10/15 10:05:38;;;;;;;4.17;1.90;;;10.90;99.90;;;;;;5035532;28;20226;-57
2021/10/15 10:08:06;;;;;;;3.20;1.52;;;10.80;99.90;;;;;;5034758;28;20457;-56
2021/10/15 10:10:36;;;;;;;1.50;1.33;;;10.80;99.90;;;;;;5035120;28;20268;-56
2021/10/15 10:13:04;;;;;;;1.67;1.13;;;10.80;99.90;;;;;;5034881;28;20263;-56
2021/10/15 10:15:32;;;;;;;4.40;1.63;;;10.80;99.90;;;;;;5034719;28;20688;-57
2021/10/15 10:18:10;;;;;;;1.55;1.30;;;10.70;99.90;;;;;;5034731;28;20275;-57
2021/10/15 10:20:41;;;;;;;1.95;1.20;;;10.60;99.90;;;;;;5034890;28;20205;-57
2021/10/15 10:23:14;;;;;;;1.33;1.15;;;10.50;99.90;;;;;;5034543;28;20185;-56
2021/10/15 10:25:42;;;;;;;3.20;1.20;;;10.50;99.90;;;;;;5034541;28;20225;-57
2021/10/15 10:28:18;;;;;;;3.05;1.40;;;10.40;99.90;;;;;;5034828;28;20664;-56
2021/10/15 10:30:47;;;;;;;2.70;1.10;;;10.40;99.90;;;;;;5034740;28;20640;-57
2021/10/15 10:33:14;;;;;;;1.73;1.00;;;10.40;99.90;;;;;;5034180;28;20687;-56
2021/10/15 10:35:44;;;;;;;2.75;1.38;;;10.30;99.90;;;;;;5034562;28;20286;-57
2021/10/15 10:38:29;;;;;;;3.20;1.15;;;10.30;99.90;;;;;;5034425;28;20272;-57
2021/10/15 10:41:17;;;;;;;3.28;1.05;;;10.30;99.90;;;;;;5034243;28;20625;-56
2021/10/15 10:44:10;;;;;;;2.10;1.27;;;10.20;99.90;;;;;;5033997;28;20284;-56
2021/10/15 10:46:37;;;;;;;2.20;1.02;;;10.20;99.90;;;;;;5049084;22;20287;-60
2021/10/15 10:49:19;;;;;;;2.13;1.08;;;10.30;99.90;;;;;;5034319;28;20295;-60
2021/10/15 10:52:14;;;;;;;1.50;1.08;;;10.30;99.90;;;;;;5034332;28;20205;-58
2021/10/15 10:54:43;;;;;;;1.27;0.90;;;10.40;99.90;;;;;;5035582;28;20251;-60
2021/10/15 10:57:29;;;;;;;2.22;1.02;;;10.40;99.90;;;;;;5034692;28;20714;-60
2021/10/15 11:00:19;;;;;;;2.17;1.02;;;10.50;99.90;;;;;;5034486;28;20243;-60
2021/10/15 11:02:48;;;;;;;1.60;0.80;;;10.60;99.90;;;;;;5034499;28;20562;-61
2021/10/15 11:05:35;;;;;;;1.83;0.93;;;10.70;99.90;;;;;;5034719;28;20205;-60
2021/10/15 11:08:32;;;;;;;3.97;1.20;;;10.70;99.90;;;;;;5034528;28;20225;-59
2021/10/15 11:11:43;;;;;;;1.23;1.05;;;10.70;99.90;;;;;;5033456;28;20648;-60
2021/10/15 11:14:45;;;;;;;1.77;0.90;;;10.70;99.90;;;;;;5034276;28;20189;-59
2021/10/15 11:17:13;;;;;;;3.13;1.17;;;10.70;99.90;;;;;;5033267;28;20251;-61
2021/10/15 11:19:41;;;;;;;5.00;1.60;;;10.70;99.90;;;;;;5034182;28;20231;-60
2021/10/15 11:22:08;;;;;;;2.23;1.63;;;10.70;99.90;;;;;;5034076;28;20202;-61
2021/10/15 11:24:35;;;;;;;3.57;2.00;;;10.70;99.90;;;;;;5033988;28;20527;-60
2021/10/15 11:27:13;;;;;;;4.15;1.90;;;10.70;99.90;;;;;;5033249;28;20483;-60
2021/10/15 11:29:50;;;;;;;2.30;1.87;;;10.70;99.90;;;;;;5033595;28;20214;-60
2021/10/15 11:32:31;;;;;;;2.23;1.83;;;10.70;99.90;;;;;;5033615;28;20490;-60
2021/10/15 11:35:07;;;;;;;2.08;1.88;;;10.90;99.90;;;;;;5033457;28;20432;-60
2021/10/15 11:37:49;;;;;;;3.97;2.57;;;11.10;99.90;;;;;;5033323;28;20229;-60
2021/10/15 11:40:20;;;;;;;2.83;1.90;;;11.20;99.90;;;;;;5034458;28;20493;-60
2021/10/15 11:42:47;;;;;;;3.83;2.00;;;11.20;99.90;;;;;;5034462;28;20221;-60
2021/10/15 11:45:29;;;;;;;2.97;2.10;;;11.20;99.90;;;;;;5033941;28;20491;-60
2021/10/15 11:48:03;;;;;;;4.10;1.60;;;11.30;99.90;;;;;;5034450;28;20494;-60
2021/10/15 11:50:41;;;;;;;3.07;1.90;;;11.30;99.90;;;;;;5034152;28;20515;-59
2021/10/15 11:53:09;;;;;;;3.70;1.80;;;11.30;99.90;;;;;;5033660;28;20435;-59
2021/10/15 11:55:38;;;;;;;4.57;1.80;;;11.40;99.90;;;;;;5033964;28;20441;-60
2021/10/15 11:58:34;;;;;;;4.13;1.87;;;11.60;99.90;;;;;;5033974;28;20476;-60
2021/10/15 12:01:15;;;;;;;6.83;1.63;;;11.80;99.90;;;;;;5033898;28;20426;-61
2021/10/15 12:03:47;;;;;;;9.63;2.63;;;12.00;99.90;;;;;;5033839;28;20433;-61
2021/10/15 12:06:30;;;;;;;7.90;2.00;;;12.10;99.90;;;;;;5034435;28;20819;-60
2021/10/15 12:09:00;;;;;;;2.40;1.13;;;12.20;99.90;;;;;;5034555;28;20436;-61
2021/10/15 12:11:33;;;;;;;4.97;1.77;;;12.20;99.90;;;;;;5034283;28;20483;-60
2021/10/15 12:14:02;;;;;;;3.13;1.50;;;12.20;99.90;;;;;;5033853;28;20429;-60
2021/10/15 12:16:32;;;;;;;4.30;1.73;;;12.20;99.90;;;;;;5033539;28;20512;-59
2021/10/15 12:19:11;;;;;;;4.40;1.93;;;12.30;99.90;;;;;;5033288;28;20502;-59
2021/10/15 12:21:41;;;;;;;5.37;1.70;;;12.30;99.90;;;;;;5033608;28;20438;-60
2021/10/15 12:24:11;;;;;;;3.93;1.80;;;12.40;99.90;;;;;;5033407;28;20445;-59
2021/10/15 12:26:38;;;;;;;2.50;1.57;;;12.40;99.90;;;;;;5033090;28;20853;-60
2021/10/15 12:29:05;;;;;;;7.17;2.00;;;12.40;99.90;;;;;;5034453;28;20449;-61
2021/10/15 12:31:35;;;;;;;4.27;1.90;;;12.60;99.90;;;;;;5037364;28;20865;-59
2021/10/15 12:34:07;;;;;;;5.73;2.10;;;12.60;99.90;;;;;;5037860;28;20456;-61
2021/10/15 12:36:37;;;;;;;5.87;1.83;;;12.50;99.90;;;;;;5037219;28;20560;-59
2021/10/15 12:39:21;;;;;;;4.23;2.17;;;12.40;99.90;;;;;;5038012;28;20931;-59
2021/10/15 12:41:49;;;;;;;2.50;1.40;;;12.50;99.90;;;;;;5041842;28;20441;-59
2021/10/15 12:44:34;;;;;;;6.10;2.20;;;12.50;99.90;;;;;;5043635;28;20905;-60
2021/10/15 12:47:03;;;;;;;6.73;2.17;;;12.50;99.90;;;;;;5041862;28;20526;-60
2021/10/15 12:49:32;;;;;;;7.33;2.20;;;12.50;99.90;;;;;;5037690;28;20481;-61
2021/10/15 12:52:01;;;;;;;4.63;1.67;;;12.50;99.90;;;;;;5037004;28;20449;-61
2021/10/15 12:54:41;;;;;;;5.37;2.30;;;12.60;99.90;;;;;;5037042;28;20488;-62
2021/10/15 12:57:16;;;;;;;5.40;2.20;;;12.70;99.90;;;;;;5037192;28;20524;-61
2021/10/15 13:00:02;;;;;;;6.70;2.00;;;12.80;99.90;;;;;;5044583;28;20440;-60
2021/10/15 13:02:30;;;;;;;3.30;1.50;;;12.70;99.90;;;;;;5057535;28;20480;-64
2021/10/15 13:04:59;;;;;;;4.23;1.90;;;12.70;99.90;;;;;;5054705;28;20437;-60
2021/10/15 13:07:28;;;;;;;5.50;1.70;;;12.60;99.90;;;;;;5054054;28;20495;-60
2021/10/15 13:09:56;;;;;;;7.07;2.30;;;12.50;99.90;;;;;;5045725;28;20507;-60